Time;durP1;ratioP1;P1;durP2;ratioP2;P2;SDS_P1;SDS_P2;PMS_P1;PMS_P2;Temp;Humidity;BMP_temperature;BMP_pressure;BME280_temperature;BME280_humidity;BME280_pressure;Samples;Min_cycle;Max_cycle;Signal;HPM_P1;HPM_P2
2022/12/23 00:00:27;;;;;;;1.23;0.90;;;;;;;;;;4902035;29;20044;-61
2022/12/23 00:02:53;;;;;;;0.90;0.68;;;;;;;;;;4901815;29;20513;-59
2022/12/23 00:05:20;;;;;;;0.80;0.70;;;;;;;;;;4918258;29;20458;-60
2022/12/23 00:07:47;;;;;;;2.17;0.80;;;;;;;;;;4918467;29;20051;-59
2022/12/23 00:10:13;;;;;;;0.85;0.70;;;;;;;;;;4918700;29;20099;-60
2022/12/23 00:15:24;;;;;;;3.50;0.75;;;;;;;;;;4918152;29;20163;-59
2022/12/23 00:17:51;;;;;;;0.88;0.50;;;;;;;;;;4918895;29;20076;-59
2022/12/23 00:20:17;;;;;;;0.80;0.50;;;;;;;;;;4918766;29;20048;-61
2022/12/23 00:25:44;;;;;;;1.23;0.77;;;;;;;;;;4917851;29;20095;-61
2022/12/23 00:28:15;;;;;;;0.52;0.52;;;;;;;;;;4918425;29;20040;-60
2022/12/23 00:30:46;;;;;;;0.50;0.50;;;;;;;;;;4917924;29;20082;-59
2022/12/23 00:33:14;;;;;;;0.65;0.63;;;;;;;;;;4901177;29;20048;-59
2022/12/23 00:35:41;;;;;;;0.50;0.50;;;;;;;;;;4901106;29;20437;-58
2022/12/23 00:38:08;;;;;;;0.57;0.52;;;;;;;;;;4918256;29;20040;-59
2022/12/23 00:43:19;;;;;;;2.05;0.73;;;;;;;;;;4901095;29;20076;-62
2022/12/23 00:45:45;;;;;;;0.70;0.70;;;;;;;;;;4917587;29;20044;-59
2022/12/23 00:50:57;;;;;;;0.80;0.80;;;;;;;;;;4917902;29;20096;-61
2022/12/23 00:53:24;;;;;;;2.70;1.35;;;;;;;;;;4917774;29;20044;-62
2022/12/23 00:55:50;;;;;;;0.82;0.80;;;;;;;;;;4917064;29;20111;-62
2022/12/23 00:58:17;;;;;;;0.80;0.80;;;;;;;;;;4901066;29;20052;-61
2022/12/23 01:06:15;;;;;;;0.90;0.75;;;;;;;;;;4917112;29;20048;-61
2022/12/23 01:08:42;;;;;;;0.98;0.82;;;;;;;;;;4917479;29;20497;-59
2022/12/23 01:11:09;;;;;;;0.70;0.70;;;;;;;;;;4917455;29;20044;-59
2022/12/23 01:13:36;;;;;;;0.70;0.70;;;;;;;;;;4917872;29;20048;-58
2022/12/23 01:16:03;;;;;;;1.05;0.80;;;;;;;;;;4916660;29;20055;-60
2022/12/23 01:18:30;;;;;;;0.57;0.57;;;;;;;;;;4917505;29;20044;-61
2022/12/23 01:21:00;;;;;;;2.03;0.63;;;;;;;;;;4916949;29;20040;-60
2022/12/23 01:23:26;;;;;;;2.38;0.88;;;;;;;;;;4900180;29;20051;-59
2022/12/23 01:25:57;;;;;;;1.75;0.90;;;;;;;;;;4916622;29;20520;-60
2022/12/23 01:28:23;;;;;;;0.70;0.68;;;;;;;;;;4917092;29;20450;-61
2022/12/23 01:30:50;;;;;;;0.60;0.60;;;;;;;;;;4916915;29;20036;-59
2022/12/23 01:33:16;;;;;;;1.15;0.90;;;;;;;;;;4919942;29;20048;-57
2022/12/23 01:35:43;;;;;;;0.70;0.70;;;;;;;;;;4926103;29;20064;-57
2022/12/23 01:38:09;;;;;;;0.60;0.60;;;;;;;;;;4924498;29;20220;-61
2022/12/23 01:40:36;;;;;;;0.77;0.70;;;;;;;;;;4917269;29;20048;-60
2022/12/23 01:43:03;;;;;;;1.98;0.98;;;;;;;;;;4916720;29;20055;-60
2022/12/23 01:45:30;;;;;;;0.90;0.82;;;;;;;;;;4916054;29;20048;-61
2022/12/23 01:48:17;;;;;;;0.80;0.80;;;;;;;;;;4916392;29;20047;-61
2022/12/23 01:50:44;;;;;;;0.95;0.85;;;;;;;;;;4916286;29;20541;-61
2022/12/23 01:53:12;;;;;;;0.77;0.77;;;;;;;;;;4883994;29;20049;-61
2022/12/23 01:55:42;;;;;;;0.90;0.80;;;;;;;;;;4916055;29;20044;-61
2022/12/23 01:58:10;;;;;;;0.93;0.73;;;;;;;;;;4916614;29;20166;-60
2022/12/23 02:11:57;;;;;;;0.93;0.80;;;;;;;;;;4917415;29;20062;-60
2022/12/23 02:17:31;;;;;;;0.70;0.70;;;;;;;;;;4900332;29;20095;-60
2022/12/23 02:20:26;;;;;;;0.70;0.70;;;;;;;;;;4916361;29;20032;-59
2022/12/23 02:22:58;;;;;;;1.30;0.70;;;;;;;;;;4916343;29;20512;-60
2022/12/23 02:25:41;;;;;;;0.50;0.50;;;;;;;;;;4916209;29;20532;-60
2022/12/23 02:28:26;;;;;;;0.60;0.60;;;;;;;;;;4915805;29;20048;-60
2022/12/23 02:31:08;;;;;;;0.75;0.60;;;;;;;;;;4915836;29;20119;-60
2022/12/23 02:33:44;;;;;;;1.67;0.60;;;;;;;;;;4915749;29;20186;-61
2022/12/23 02:36:26;;;;;;;0.82;0.70;;;;;;;;;;4916615;29;20493;-61
2022/12/23 02:39:10;;;;;;;0.82;0.70;;;;;;;;;;4917585;29;20047;-61
2022/12/23 02:41:54;;;;;;;0.93;0.70;;;;;;;;;;4917763;29;20466;-60
2022/12/23 02:44:34;;;;;;;1.58;0.85;;;;;;;;;;4917646;29;20051;-61
2022/12/23 02:47:04;;;;;;;0.73;0.68;;;;;;;;;;4917355;29;20040;-61
2022/12/23 02:49:35;;;;;;;0.80;0.77;;;;;;;;;;4918083;29;20032;-60
2022/12/23 02:52:03;;;;;;;1.20;0.63;;;;;;;;;;4918960;29;20103;-61
2022/12/23 02:54:33;;;;;;;0.73;0.70;;;;;;;;;;4902374;29;20052;-60
2022/12/23 02:57:01;;;;;;;0.98;0.70;;;;;;;;;;4901697;29;20438;-60
2022/12/23 02:59:31;;;;;;;1.55;0.90;;;;;;;;;;4902275;29;20052;-61
2022/12/23 03:01:59;;;;;;;0.70;0.70;;;;;;;;;;4901990;29;20040;-61
2022/12/23 03:04:26;;;;;;;1.35;0.80;;;;;;;;;;4918458;29;20565;-59
2022/12/23 03:06:53;;;;;;;2.25;0.60;;;;;;;;;;4918288;29;20058;-60
2022/12/23 03:09:28;;;;;;;1.42;0.70;;;;;;;;;;4901566;29;20512;-60
2022/12/23 03:12:00;;;;;;;1.00;0.73;;;;;;;;;;4918206;29;20074;-60
2022/12/23 03:14:29;;;;;;;0.75;0.70;;;;;;;;;;4918087;29;20234;-60
2022/12/23 03:16:56;;;;;;;0.95;0.60;;;;;;;;;;4916308;29;20509;-60
2022/12/23 03:19:27;;;;;;;2.00;1.15;;;;;;;;;;4920251;29;20099;-58
2022/12/23 03:21:56;;;;;;;1.48;0.70;;;;;;;;;;4920083;29;20047;-59
2022/12/23 03:24:41;;;;;;;0.50;0.50;;;;;;;;;;4919335;29;20054;-60
2022/12/23 03:27:26;;;;;;;0.75;0.50;;;;;;;;;;4918853;29;20052;-59
2022/12/23 03:30:02;;;;;;;0.80;0.65;;;;;;;;;;4918895;29;20080;-60
2022/12/23 03:32:31;;;;;;;1.45;0.60;;;;;;;;;;4919411;29;20421;-57
2022/12/23 03:34:59;;;;;;;0.63;0.50;;;;;;;;;;4918943;29;20481;-60
2022/12/23 03:37:26;;;;;;;1.08;0.70;;;;;;;;;;4901702;29;20056;-60
2022/12/23 03:39:56;;;;;;;0.50;0.50;;;;;;;;;;4918851;29;20048;-60
2022/12/23 03:42:27;;;;;;;0.75;0.60;;;;;;;;;;4918705;29;20048;-60
2022/12/23 03:44:55;;;;;;;2.10;0.50;;;;;;;;;;4918730;29;20054;-59
2022/12/23 03:47:51;;;;;;;1.20;0.60;;;;;;;;;;4918512;29;20079;-60
2022/12/23 03:50:18;;;;;;;0.75;0.40;;;;;;;;;;4918788;29;20127;-60
2022/12/23 03:52:50;;;;;;;0.45;0.45;;;;;;;;;;4901606;29;20536;-61
2022/12/23 03:55:19;;;;;;;0.50;0.50;;;;;;;;;;4918079;29;20048;-61
2022/12/23 03:57:48;;;;;;;0.43;0.40;;;;;;;;;;4918560;29;20048;-61
2022/12/23 04:00:15;;;;;;;0.73;0.68;;;;;;;;;;4918374;29;20044;-61
2022/12/23 04:02:49;;;;;;;1.27;0.55;;;;;;;;;;4918593;29;20127;-61
2022/12/23 04:05:15;;;;;;;0.82;0.60;;;;;;;;;;4918026;29;20044;-61
2022/12/23 04:07:46;;;;;;;1.60;0.60;;;;;;;;;;4918447;29;20040;-61
2022/12/23 04:10:13;;;;;;;0.70;0.70;;;;;;;;;;4918458;29;20048;-61
2022/12/23 04:12:40;;;;;;;1.00;0.50;;;;;;;;;;4918471;29;20048;-61
2022/12/23 04:15:06;;;;;;;1.88;0.70;;;;;;;;;;4917894;29;20485;-61
2022/12/23 04:17:38;;;;;;;0.77;0.50;;;;;;;;;;4918100;29;20056;-63
2022/12/23 04:20:05;;;;;;;1.48;0.50;;;;;;;;;;4918572;29;20048;-61
2022/12/23 04:22:31;;;;;;;0.75;0.40;;;;;;;;;;4918736;29;20060;-61
2022/12/23 04:24:58;;;;;;;1.15;0.50;;;;;;;;;;4919178;29;20489;-61
2022/12/23 04:27:24;;;;;;;0.50;0.47;;;;;;;;;;4918510;29;20461;-61
2022/12/23 04:29:50;;;;;;;0.90;0.90;;;;;;;;;;4900889;29;20044;-61
2022/12/23 04:32:17;;;;;;;1.23;0.40;;;;;;;;;;4918108;29;20041;-61
2022/12/23 04:34:43;;;;;;;0.57;0.57;;;;;;;;;;4918407;29;20044;-61
2022/12/23 04:37:09;;;;;;;0.45;0.43;;;;;;;;;;4917799;29;20043;-62
2022/12/23 04:39:36;;;;;;;0.50;0.50;;;;;;;;;;4918235;29;20045;-61
2022/12/23 04:42:02;;;;;;;0.57;0.57;;;;;;;;;;4918177;29;20556;-61
2022/12/23 04:44:29;;;;;;;1.23;0.45;;;;;;;;;;4917889;29;20059;-61
2022/12/23 04:46:55;;;;;;;0.40;0.40;;;;;;;;;;4900323;29;20498;-61
2022/12/23 04:49:21;;;;;;;0.75;0.60;;;;;;;;;;4901243;29;20048;-61
2022/12/23 04:51:48;;;;;;;0.63;0.50;;;;;;;;;;4918665;29;20100;-59
2022/12/23 04:54:14;;;;;;;2.60;0.82;;;;;;;;;;4918375;29;20040;-59
2022/12/23 04:56:41;;;;;;;1.05;0.60;;;;;;;;;;4900512;29;20108;-60
2022/12/23 04:59:08;;;;;;;1.10;0.80;;;;;;;;;;4918100;29;20100;-60
2022/12/23 05:01:34;;;;;;;1.10;1.00;;;;;;;;;;5328792;23;20402;-59
2022/12/23 05:04:01;;;;;;;1.35;0.90;;;;;;;;;;4936724;29;20040;-60
2022/12/23 05:06:27;;;;;;;1.38;0.95;;;;;;;;;;4936133;29;20504;-61
2022/12/23 05:08:54;;;;;;;1.00;0.90;;;;;;;;;;4919381;29;20489;-60
2022/12/23 05:11:20;;;;;;;1.58;1.10;;;;;;;;;;4936628;29;20442;-60
2022/12/23 05:13:47;;;;;;;1.98;0.90;;;;;;;;;;4936505;29;20520;-61
2022/12/23 05:16:13;;;;;;;0.73;0.68;;;;;;;;;;4935643;29;20094;-61
2022/12/23 05:18:39;;;;;;;0.85;0.80;;;;;;;;;;4936310;29;20427;-60
2022/12/23 05:21:06;;;;;;;0.95;0.80;;;;;;;;;;4936356;29;20385;-60
2022/12/23 05:23:32;;;;;;;1.65;0.95;;;;;;;;;;4936454;29;20056;-60
2022/12/23 05:25:59;;;;;;;0.80;0.80;;;;;;;;;;4935575;29;20056;-60
2022/12/23 05:28:25;;;;;;;1.27;1.00;;;;;;;;;;4935966;29;20408;-60
2022/12/23 05:30:58;;;;;;;0.80;0.70;;;;;;;;;;4936140;29;20036;-60
2022/12/23 05:33:25;;;;;;;1.23;0.90;;;;;;;;;;4919166;29;20461;-60
2022/12/23 05:35:51;;;;;;;0.65;0.57;;;;;;;;;;4935530;29;20044;-60
2022/12/23 05:38:18;;;;;;;0.93;0.70;;;;;;;;;;4935962;29;20457;-60
2022/12/23 05:40:44;;;;;;;1.23;0.85;;;;;;;;;;4935155;29;20448;-60
2022/12/23 05:43:10;;;;;;;0.63;0.60;;;;;;;;;;4935589;29;20048;-60
2022/12/23 05:45:37;;;;;;;0.60;0.60;;;;;;;;;;4935166;29;20047;-60
2022/12/23 05:48:04;;;;;;;0.68;0.68;;;;;;;;;;4935820;29;20047;-60
2022/12/23 05:50:30;;;;;;;0.50;0.50;;;;;;;;;;4935662;29;20047;-60
2022/12/23 05:53:00;;;;;;;0.77;0.77;;;;;;;;;;4935403;29;20044;-60
2022/12/23 05:55:26;;;;;;;0.98;0.60;;;;;;;;;;4917840;29;20052;-61
2022/12/23 05:57:53;;;;;;;1.75;1.05;;;;;;;;;;4935483;29;20080;-61
2022/12/23 06:00:19;;;;;;;1.75;0.80;;;;;;;;;;4935406;29;20051;-61
2022/12/23 06:02:46;;;;;;;0.80;0.80;;;;;;;;;;4918174;29;20417;-61
2022/12/23 06:05:19;;;;;;;1.97;1.00;;;;;;;;;;4934785;29;20500;-61
2022/12/23 06:07:45;;;;;;;1.00;1.00;;;;;;;;;;4935183;29;20382;-59
2022/12/23 06:10:12;;;;;;;1.98;1.15;;;;;;;;;;4935184;29;20095;-60
2022/12/23 06:12:38;;;;;;;1.38;1.27;;;;;;;;;;4935138;29;20471;-60
2022/12/23 06:15:05;;;;;;;2.38;0.93;;;;;;;;;;4934500;29;20046;-60
2022/12/23 06:17:31;;;;;;;1.95;0.93;;;;;;;;;;4935265;29;20047;-61
2022/12/23 06:19:58;;;;;;;1.58;1.00;;;;;;;;;;4935064;29;20058;-61
2022/12/23 06:22:24;;;;;;;0.77;0.77;;;;;;;;;;4934944;29;20108;-61
2022/12/23 06:24:50;;;;;;;0.82;0.82;;;;;;;;;;4935442;29;20048;-61
2022/12/23 06:27:17;;;;;;;2.00;0.90;;;;;;;;;;4934328;29;20047;-60
2022/12/23 06:29:43;;;;;;;1.30;1.20;;;;;;;;;;4934943;29;20044;-60
2022/12/23 06:32:10;;;;;;;0.55;0.55;;;;;;;;;;4934839;29;20052;-61
2022/12/23 06:34:36;;;;;;;1.17;0.93;;;;;;;;;;4934869;29;20564;-60
2022/12/23 06:37:02;;;;;;;1.17;1.00;;;;;;;;;;4934171;29;20390;-61
2022/12/23 06:39:29;;;;;;;0.98;0.68;;;;;;;;;;4934972;29;20047;-61
2022/12/23 06:41:55;;;;;;;1.02;0.93;;;;;;;;;;4934789;29;20051;-61
2022/12/23 06:44:22;;;;;;;1.92;0.80;;;;;;;;;;4934688;29;20070;-61
2022/12/23 06:46:48;;;;;;;1.58;0.77;;;;;;;;;;4934152;29;20409;-61
2022/12/23 06:49:14;;;;;;;0.70;0.70;;;;;;;;;;4934722;29;20036;-61
2022/12/23 06:51:41;;;;;;;1.17;0.70;;;;;;;;;;4934432;29;20051;-61
2022/12/23 06:54:10;;;;;;;1.00;0.90;;;;;;;;;;4934456;29;20055;-61
2022/12/23 06:56:37;;;;;;;0.98;0.88;;;;;;;;;;4934109;29;20036;-61
2022/12/23 06:59:04;;;;;;;1.27;0.80;;;;;;;;;;4934685;29;20039;-61
2022/12/23 07:01:30;;;;;;;0.98;0.90;;;;;;;;;;4934307;29;20107;-60
2022/12/23 07:03:57;;;;;;;1.13;0.98;;;;;;;;;;4935020;29;20130;-59
2022/12/23 07:06:23;;;;;;;0.80;0.80;;;;;;;;;;4933855;29;20079;-59
2022/12/23 07:08:49;;;;;;;0.95;0.80;;;;;;;;;;4934705;29;20051;-59
2022/12/23 07:11:16;;;;;;;1.48;0.90;;;;;;;;;;4934475;29;20048;-59
2022/12/23 07:13:42;;;;;;;0.90;0.90;;;;;;;;;;4934507;29;20143;-59
2022/12/23 07:16:09;;;;;;;0.98;0.88;;;;;;;;;;4933802;29;20054;-59
2022/12/23 07:18:35;;;;;;;1.02;0.73;;;;;;;;;;4934964;29;20058;-59
2022/12/23 07:21:02;;;;;;;0.65;0.65;;;;;;;;;;4934314;29;20524;-59
2022/12/23 07:23:28;;;;;;;0.60;0.60;;;;;;;;;;4934293;29;20051;-59
2022/12/23 07:25:55;;;;;;;0.68;0.68;;;;;;;;;;4933858;29;20103;-62
2022/12/23 07:28:21;;;;;;;1.27;1.00;;;;;;;;;;4934290;29;20040;-59
2022/12/23 07:30:48;;;;;;;0.80;0.75;;;;;;;;;;4934398;29;20040;-60
2022/12/23 07:33:14;;;;;;;0.65;0.60;;;;;;;;;;4934573;29;20445;-60
2022/12/23 07:35:41;;;;;;;3.53;1.88;;;;;;;;;;4933920;29;20448;-60
2022/12/23 07:38:07;;;;;;;5.47;0.70;;;;;;;;;;4934344;29;20135;-60
2022/12/23 07:40:34;;;;;;;0.80;0.80;;;;;;;;;;4934315;29;20043;-60
2022/12/23 07:43:00;;;;;;;0.60;0.60;;;;;;;;;;4934204;29;20052;-60
2022/12/23 07:45:28;;;;;;;2.42;0.65;;;;;;;;;;4934012;29;20148;-60
2022/12/23 07:47:55;;;;;;;1.73;1.05;;;;;;;;;;4934896;29;20048;-60
2022/12/23 07:50:22;;;;;;;0.63;0.63;;;;;;;;;;4934442;29;20126;-60
2022/12/23 07:52:48;;;;;;;0.80;0.80;;;;;;;;;;4934084;29;20047;-60
2022/12/23 07:55:15;;;;;;;1.77;1.00;;;;;;;;;;4933554;29;20103;-60
2022/12/23 07:57:41;;;;;;;2.55;1.50;;;;;;;;;;4934165;29;20098;-60
2022/12/23 08:00:09;;;;;;;1.50;1.10;;;;;;;;;;4934099;29;20072;-60
2022/12/23 08:02:39;;;;;;;1.00;0.90;;;;;;;;;;4934078;29;20106;-60
2022/12/23 08:05:06;;;;;;;1.85;1.40;;;;;;;;;;4935360;29;20055;-60
2022/12/23 08:07:32;;;;;;;2.67;1.13;;;;;;;;;;4937397;29;20095;-60
2022/12/23 08:09:58;;;;;;;3.03;1.13;;;;;;;;;;4937330;29;20111;-61
2022/12/23 08:12:25;;;;;;;2.63;1.27;;;;;;;;;;4937339;29;20063;-60
2022/12/23 08:14:51;;;;;;;1.42;1.30;;;;;;;;;;4937235;29;20044;-60
2022/12/23 08:17:20;;;;;;;3.58;1.60;;;;;;;;;;4936633;29;20056;-60
2022/12/23 08:19:47;;;;;;;2.03;1.48;;;;;;;;;;4920193;29;20051;-60
2022/12/23 08:22:13;;;;;;;1.73;1.30;;;;;;;;;;4937074;29;20080;-62
2022/12/23 08:24:39;;;;;;;0.90;0.90;;;;;;;;;;4937062;29;20496;-60
2022/12/23 08:27:06;;;;;;;1.70;1.60;;;;;;;;;;4936465;29;20544;-60
2022/12/23 08:29:32;;;;;;;1.20;1.10;;;;;;;;;;4936908;29;20047;-60
2022/12/23 08:32:02;;;;;;;2.45;1.75;;;;;;;;;;4936911;29;20508;-60
2022/12/23 08:34:28;;;;;;;2.95;2.20;;;;;;;;;;4937050;29;20496;-60
2022/12/23 08:36:54;;;;;;;2.13;1.92;;;;;;;;;;4936354;29;20489;-60
2022/12/23 08:39:21;;;;;;;3.15;1.70;;;;;;;;;;4936839;29;20055;-60
2022/12/23 08:41:47;;;;;;;3.28;1.65;;;;;;;;;;4936801;29;20077;-60
2022/12/23 08:44:14;;;;;;;2.03;1.80;;;;;;;;;;4936717;29;20053;-60
2022/12/23 08:46:41;;;;;;;8.20;1.65;;;;;;;;;;4919274;29;20047;-60
2022/12/23 08:49:08;;;;;;;2.75;1.58;;;;;;;;;;4936709;29;20047;-60
2022/12/23 08:51:34;;;;;;;1.42;1.00;;;;;;;;;;4936531;29;20044;-60
2022/12/23 08:54:01;;;;;;;1.40;1.30;;;;;;;;;;4936577;29;20114;-60
2022/12/23 08:56:29;;;;;;;2.72;1.20;;;;;;;;;;4935984;29;20044;-60
2022/12/23 08:58:55;;;;;;;1.45;1.25;;;;;;;;;;4936939;29;20102;-61
2022/12/23 09:01:23;;;;;;;3.33;1.45;;;;;;;;;;4936236;29;20079;-60
2022/12/23 09:03:49;;;;;;;3.03;1.60;;;;;;;;;;4937250;29;20044;-60
2022/12/23 09:06:17;;;;;;;2.20;1.50;;;;;;;;;;4936020;29;20048;-60
2022/12/23 09:08:52;;;;;;;1.75;1.23;;;;;;;;;;4936315;29;20050;-60
2022/12/23 09:11:19;;;;;;;2.40;1.60;;;;;;;;;;4936352;29;20091;-60
2022/12/23 09:13:46;;;;;;;2.38;1.40;;;;;;;;;;4936388;29;20078;-60
2022/12/23 09:16:13;;;;;;;1.65;1.33;;;;;;;;;;4935534;29;20099;-60
2022/12/23 09:18:40;;;;;;;1.90;1.30;;;;;;;;;;4935826;29;20079;-60
2022/12/23 09:21:09;;;;;;;3.13;1.90;;;;;;;;;;4936287;29;20051;-60
2022/12/23 09:23:36;;;;;;;4.15;1.98;;;;;;;;;;4936180;29;20047;-60
2022/12/23 09:26:03;;;;;;;7.32;2.80;;;;;;;;;;4935507;29;20118;-60
2022/12/23 09:28:29;;;;;;;3.90;2.20;;;;;;;;;;4936053;29;20047;-60
2022/12/23 09:30:55;;;;;;;1.67;1.25;;;;;;;;;;4936143;29;20568;-60
2022/12/23 09:33:22;;;;;;;5.93;2.83;;;;;;;;;;4935902;29;20043;-60
2022/12/23 09:35:48;;;;;;;8.60;3.33;;;;;;;;;;4935510;29;20040;-60
2022/12/23 09:38:15;;;;;;;6.72;3.15;;;;;;;;;;4935909;29;20071;-60
2022/12/23 09:40:42;;;;;;;4.13;2.17;;;;;;;;;;4936096;29;20036;-60
2022/12/23 09:43:32;;;;;;;3.65;2.38;;;;;;;;;;4935706;29;20039;-59
2022/12/23 09:46:01;;;;;;;2.72;1.88;;;;;;;;;;4927676;29;20075;-60
2022/12/23 09:48:31;;;;;;;2.97;1.60;;;;;;;;;;4935786;29;20075;-60
2022/12/23 09:50:59;;;;;;;3.72;1.60;;;;;;;;;;4935793;29;20100;-60
2022/12/23 09:53:30;;;;;;;2.95;1.58;;;;;;;;;;4936128;29;20207;-60
2022/12/23 09:56:05;;;;;;;2.30;1.95;;;;;;;;;;4935650;29;20066;-60
2022/12/23 09:58:42;;;;;;;2.00;1.70;;;;;;;;;;4935929;29;20079;-60
2022/12/23 10:01:17;;;;;;;3.85;2.80;;;;;;;;;;4935450;29;20079;-60
2022/12/23 10:04:05;;;;;;;1.70;1.15;;;;;;;;;;4936083;29;20140;-60
2022/12/23 10:06:33;;;;;;;2.05;1.40;;;;;;;;;;4935782;29;20075;-59
2022/12/23 10:09:00;;;;;;;5.88;2.03;;;;;;;;;;4935879;29;20090;-60
2022/12/23 10:11:29;;;;;;;3.97;2.17;;;;;;;;;;4935590;29;20051;-60
2022/12/23 10:14:14;;;;;;;2.47;1.50;;;;;;;;;;4935541;29;20047;-60
2022/12/23 10:16:43;;;;;;;5.75;1.65;;;;;;;;;;4917788;29;20059;-60
2022/12/23 10:19:12;;;;;;;2.92;1.77;;;;;;;;;;4935288;29;20501;-60
2022/12/23 10:21:38;;;;;;;4.75;2.30;;;;;;;;;;4935395;29;20051;-60
2022/12/23 10:24:19;;;;;;;2.95;1.33;;;;;;;;;;4935075;29;20058;-60
2022/12/23 10:26:50;;;;;;;2.45;1.55;;;;;;;;;;4935362;29;20047;-60
2022/12/23 10:29:18;;;;;;;1.67;1.48;;;;;;;;;;4935459;29;20052;-61
2022/12/23 10:31:50;;;;;;;4.50;3.42;;;;;;;;;;4917982;29;20111;-60
2022/12/23 10:34:21;;;;;;;4.07;3.70;;;;;;;;;;4918474;29;20552;-61
2022/12/23 10:37:01;;;;;;;2.90;2.42;;;;;;;;;;4935054;29;20099;-60
2022/12/23 10:39:35;;;;;;;5.28;3.20;;;;;;;;;;4919811;29;20047;-60
2022/12/23 10:42:20;;;;;;;5.35;3.47;;;;;;;;;;4937595;29;20102;-61
2022/12/23 10:44:56;;;;;;;2.00;1.40;;;;;;;;;;4938469;29;20039;-60
2022/12/23 10:47:22;;;;;;;1.30;1.20;;;;;;;;;;4918625;29;20055;-60
2022/12/23 10:50:03;;;;;;;3.42;1.80;;;;;;;;;;4935391;29;20043;-60
2022/12/23 10:52:33;;;;;;;1.52;1.10;;;;;;;;;;4935577;29;20500;-61
2022/12/23 10:55:00;;;;;;;2.22;1.98;;;;;;;;;;4917884;29;20107;-60
2022/12/23 10:57:27;;;;;;;1.58;1.42;;;;;;;;;;4935007;29;20556;-60
2022/12/23 10:59:55;;;;;;;3.38;1.90;;;;;;;;;;4934916;29;20044;-61
2022/12/23 11:02:30;;;;;;;3.17;1.73;;;;;;;;;;4934710;29;20520;-60
2022/12/23 11:04:57;;;;;;;2.88;2.03;;;;;;;;;;4901949;29;20082;-60
2022/12/23 11:07:25;;;;;;;3.17;2.13;;;;;;;;;;4934606;29;20047;-61
2022/12/23 11:10:15;;;;;;;3.75;2.10;;;;;;;;;;4934715;29;20516;-61
2022/12/23 11:12:44;;;;;;;2.60;2.20;;;;;;;;;;4934821;29;20066;-60
2022/12/23 11:15:25;;;;;;;4.45;2.10;;;;;;;;;;4934252;29;20051;-60
2022/12/23 11:18:04;;;;;;;2.85;1.88;;;;;;;;;;4934903;29;20043;-60
2022/12/23 11:20:31;;;;;;;2.50;2.08;;;;;;;;;;4934619;29;20051;-60
2022/12/23 11:23:00;;;;;;;3.88;2.53;;;;;;;;;;4934684;29;20044;-60
2022/12/23 11:25:27;;;;;;;3.08;2.40;;;;;;;;;;4934178;29;20501;-61
2022/12/23 11:28:14;;;;;;;3.47;2.65;;;;;;;;;;4934696;29;20071;-62
2022/12/23 11:30:49;;;;;;;4.15;2.40;;;;;;;;;;4934563;29;20512;-60
2022/12/23 11:33:24;;;;;;;5.30;2.97;;;;;;;;;;4918413;29;20039;-60
2022/12/23 11:36:01;;;;;;;3.95;2.92;;;;;;;;;;4916821;29;20576;-60
2022/12/23 11:38:28;;;;;;;4.18;3.25;;;;;;;;;;4934596;29;20050;-60
2022/12/23 11:40:54;;;;;;;5.10;3.05;;;;;;;;;;4937427;29;20051;-60
2022/12/23 11:43:21;;;;;;;4.43;2.80;;;;;;;;;;4938073;29;20056;-60
2022/12/23 11:46:08;;;;;;;4.65;3.28;;;;;;;;;;4920511;29;20043;-60
2022/12/23 11:48:34;;;;;;;9.95;4.65;;;;;;;;;;4937863;29;20056;-60
2022/12/23 11:51:01;;;;;;;4.25;3.33;;;;;;;;;;4937907;29;20437;-60
2022/12/23 11:53:28;;;;;;;6.18;3.05;;;;;;;;;;4920756;29;20051;-60
2022/12/23 11:56:01;;;;;;;4.45;2.85;;;;;;;;;;4920160;29;20058;-61
2022/12/23 11:58:28;;;;;;;4.85;3.28;;;;;;;;;;4937947;29;20048;-61
2022/12/23 12:00:58;;;;;;;4.53;3.50;;;;;;;;;;4937788;29;20109;-61
2022/12/23 12:03:27;;;;;;;3.67;2.80;;;;;;;;;;4920652;29;20051;-61
2022/12/23 12:05:56;;;;;;;3.78;2.97;;;;;;;;;;4920136;29;20048;-61
2022/12/23 12:08:29;;;;;;;6.63;2.92;;;;;;;;;;4937677;29;20473;-61
2022/12/23 12:11:00;;;;;;;5.25;2.50;;;;;;;;;;4937967;29;20397;-61
2022/12/23 12:13:31;;;;;;;6.00;2.78;;;;;;;;;;4937567;29;20048;-61
2022/12/23 12:16:09;;;;;;;3.90;2.65;;;;;;;;;;4937024;29;20044;-61
2022/12/23 12:18:38;;;;;;;4.65;3.05;;;;;;;;;;4937697;29;20047;-61
2022/12/23 12:21:08;;;;;;;3.45;2.72;;;;;;;;;;4937422;29;20103;-62
2022/12/23 12:23:37;;;;;;;2.47;2.03;;;;;;;;;;4937368;29;20054;-61
2022/12/23 12:26:06;;;;;;;2.60;2.20;;;;;;;;;;4919665;29;20039;-61
2022/12/23 12:28:37;;;;;;;3.45;2.53;;;;;;;;;;4937581;29;20515;-61
2022/12/23 12:31:19;;;;;;;2.65;2.17;;;;;;;;;;4937165;29;20040;-61
2022/12/23 12:33:48;;;;;;;2.13;1.92;;;;;;;;;;4937628;29;20044;-61
2022/12/23 12:36:18;;;;;;;1.20;1.10;;;;;;;;;;4936818;29;20044;-61
2022/12/23 12:38:47;;;;;;;1.98;1.60;;;;;;;;;;4937815;29;20047;-63
2022/12/23 12:41:21;;;;;;;3.13;1.17;;;;;;;;;;4937649;29;20048;-60
2022/12/23 12:44:11;;;;;;;1.58;1.45;;;;;;;;;;4937038;29;20408;-60
2022/12/23 12:46:40;;;;;;;1.30;1.20;;;;;;;;;;4911845;29;20056;-60
2022/12/23 12:49:13;;;;;;;1.95;1.48;;;;;;;;;;4937013;29;20048;-60
2022/12/23 12:51:59;;;;;;;1.65;1.45;;;;;;;;;;4938853;29;20051;-59
2022/12/23 12:54:25;;;;;;;1.17;1.00;;;;;;;;;;4938690;29;20515;-61
2022/12/23 12:56:53;;;;;;;4.88;2.20;;;;;;;;;;4939854;29;20449;-60
2022/12/23 12:59:21;;;;;;;7.20;4.90;;;;;;;;;;4939505;29;20047;-61
2022/12/23 13:02:03;;;;;;;3.50;2.40;;;;;;;;;;4939143;29;20047;-61
2022/12/23 13:04:46;;;;;;;6.05;3.58;;;;;;;;;;4937462;29;20130;-61
2022/12/23 13:07:32;;;;;;;2.72;2.00;;;;;;;;;;4937109;29;20043;-61
2022/12/23 13:10:11;;;;;;;3.88;2.28;;;;;;;;;;4937718;29;20086;-61
2022/12/23 13:12:54;;;;;;;2.08;1.45;;;;;;;;;;4937456;29;20043;-61
2022/12/23 13:15:47;;;;;;;7.80;5.55;;;;;;;;;;4919839;29;20051;-61
2022/12/23 13:18:18;;;;;;;2.15;0.90;;;;;;;;;;4917156;29;20068;-61
2022/12/23 13:20:53;;;;;;;1.00;1.00;;;;;;;;;;4919697;29;20134;-61
2022/12/23 13:23:26;;;;;;;1.33;0.85;;;;;;;;;;4936823;29;20047;-61
2022/12/23 13:26:22;;;;;;;1.00;0.90;;;;;;;;;;4936249;29;20294;-60
2022/12/23 13:29:23;;;;;;;0.60;0.60;;;;;;;;;;4919761;29;20044;-61
2022/12/23 13:32:01;;;;;;;0.82;0.82;;;;;;;;;;4936067;29;20107;-61
2022/12/23 13:34:38;;;;;;;0.80;0.80;;;;;;;;;;4919287;29;20382;-60
2022/12/23 13:37:15;;;;;;;0.95;0.85;;;;;;;;;;4935525;29;20040;-60
2022/12/23 13:39:52;;;;;;;1.30;0.60;;;;;;;;;;4936224;29;20047;-60
2022/12/23 13:42:26;;;;;;;1.13;0.77;;;;;;;;;;4935988;29;20132;-60
2022/12/23 13:44:54;;;;;;;0.70;0.70;;;;;;;;;;4918925;29;20054;-60
2022/12/23 13:47:32;;;;;;;0.85;0.77;;;;;;;;;;4935833;29;20099;-60
2022/12/23 13:49:59;;;;;;;0.68;0.68;;;;;;;;;;4936009;29;20449;-61
2022/12/23 13:52:31;;;;;;;0.50;0.50;;;;;;;;;;4935636;29;20418;-61
2022/12/23 13:55:20;;;;;;;1.95;0.88;;;;;;;;;;4935743;29;20047;-60
2022/12/23 13:57:46;;;;;;;0.88;0.85;;;;;;;;;;4935729;29;20134;-60
2022/12/23 14:00:16;;;;;;;1.02;0.88;;;;;;;;;;4935659;29;20441;-60
2022/12/23 14:03:01;;;;;;;1.40;0.80;;;;;;;;;;4934570;29;20420;-60
2022/12/23 14:05:32;;;;;;;0.50;0.50;;;;;;;;;;4902252;29;20489;-60
2022/12/23 14:08:00;;;;;;;1.13;0.80;;;;;;;;;;4935417;29;20043;-61
2022/12/23 14:10:27;;;;;;;0.60;0.60;;;;;;;;;;4935440;29;20499;-61
2022/12/23 14:12:59;;;;;;;0.43;0.40;;;;;;;;;;4918305;29;20428;-61
2022/12/23 14:15:48;;;;;;;0.80;0.45;;;;;;;;;;4934793;29;20043;-61
2022/12/23 14:18:33;;;;;;;0.80;0.80;;;;;;;;;;4935020;29;20386;-60
2022/12/23 14:21:18;;;;;;;0.55;0.55;;;;;;;;;;4935192;29;20062;-61
2022/12/23 14:23:51;;;;;;;0.50;0.50;;;;;;;;;;4935118;29;20127;-60
2022/12/23 14:26:23;;;;;;;1.20;0.85;;;;;;;;;;4917846;29;20091;-61
2022/12/23 14:28:56;;;;;;;0.70;0.70;;;;;;;;;;4935421;29;20047;-61
2022/12/23 14:31:43;;;;;;;0.90;0.90;;;;;;;;;;4935162;29;20548;-61
2022/12/23 14:34:21;;;;;;;0.95;0.85;;;;;;;;;;4935188;29;20043;-61
2022/12/23 14:37:07;;;;;;;2.35;1.40;;;;;;;;;;4934687;29;20102;-61
2022/12/23 14:39:33;;;;;;;1.00;0.90;;;;;;;;;;4935258;29;20095;-61
2022/12/23 14:42:00;;;;;;;1.15;1.05;;;;;;;;;;4902253;29;20496;-60
2022/12/23 14:44:34;;;;;;;1.02;0.90;;;;;;;;;;4934762;29;20054;-60
2022/12/23 14:47:02;;;;;;;0.70;0.70;;;;;;;;;;4934329;29;20400;-61
2022/12/23 14:49:34;;;;;;;0.88;0.88;;;;;;;;;;4935131;29;20044;-61
2022/12/23 14:52:25;;;;;;;1.52;1.42;;;;;;;;;;4934883;29;20040;-60
2022/12/23 14:54:51;;;;;;;1.10;1.00;;;;;;;;;;4917900;29;20087;-60
2022/12/23 14:57:37;;;;;;;1.88;1.45;;;;;;;;;;4917924;29;20469;-60
2022/12/23 15:00:04;;;;;;;0.80;0.80;;;;;;;;;;4934950;29;20039;-60
2022/12/23 15:02:39;;;;;;;0.93;0.90;;;;;;;;;;4917441;29;20118;-60
2022/12/23 15:05:07;;;;;;;0.60;0.60;;;;;;;;;;4902283;29;20086;-60
2022/12/23 15:07:35;;;;;;;0.70;0.70;;;;;;;;;;4934732;29;20496;-62
2022/12/23 15:10:04;;;;;;;1.00;1.00;;;;;;;;;;4917699;29;20444;-62
2022/12/23 15:12:32;;;;;;;2.50;1.30;;;;;;;;;;4934659;29;20040;-61
2022/12/23 15:15:00;;;;;;;1.60;1.40;;;;;;;;;;4958515;23;20043;-61
2022/12/23 15:17:27;;;;;;;2.53;1.33;;;;;;;;;;4940834;29;20467;-60
2022/12/23 15:20:03;;;;;;;1.33;1.17;;;;;;;;;;4940978;29;20043;-60
2022/12/23 15:22:31;;;;;;;1.60;1.45;;;;;;;;;;4940623;29;20052;-61
2022/12/23 15:24:58;;;;;;;1.92;1.60;;;;;;;;;;4927846;29;20051;-61
2022/12/23 15:27:25;;;;;;;1.40;1.30;;;;;;;;;;4921509;29;20467;-61
2022/12/23 15:29:54;;;;;;;1.40;1.20;;;;;;;;;;4938458;29;20079;-60
2022/12/23 15:32:22;;;;;;;1.50;1.40;;;;;;;;;;4906059;29;20040;-60